createdAt,value
2018-05-23T00:01:28.724Z,15.64
2018-05-23T00:03:57.088Z,15.61
2018-05-23T00:06:25.407Z,15.64
2018-05-23T00:08:53.735Z,15.55
2018-05-23T00:11:22.152Z,15.55
2018-05-23T00:13:50.486Z,15.46
2018-05-23T00:16:18.831Z,15.43
2018-05-23T00:18:47.222Z,15.42
2018-05-23T00:21:15.565Z,15.42
2018-05-23T00:23:43.957Z,15.42
2018-05-23T00:26:12.343Z,15.39
2018-05-23T00:28:40.737Z,15.39
2018-05-23T00:31:09.130Z,15.36
2018-05-23T00:33:37.503Z,15.32
2018-05-23T00:36:05.863Z,15.25
2018-05-23T00:38:34.208Z,15.23
2018-05-23T00:41:02.837Z,15.22
2018-05-23T00:43:31.243Z,15.28
2018-05-23T00:45:59.635Z,15.31
2018-05-23T00:48:28.030Z,15.33
2018-05-23T00:50:56.361Z,15.31
2018-05-23T00:53:24.727Z,15.33
2018-05-23T00:55:53.052Z,15.33
2018-05-23T00:58:21.371Z,15.21
2018-05-23T01:00:49.675Z,15.15
2018-05-23T01:03:18.080Z,15.14
2018-05-23T01:05:46.396Z,15.14
2018-05-23T01:08:14.719Z,15.12
2018-05-23T01:10:43.058Z,15.12
2018-05-23T01:13:11.439Z,15.10
2018-05-23T01:15:39.831Z,15.08
2018-05-23T01:18:08.173Z,15.08
2018-05-23T01:20:36.502Z,15.12
2018-05-23T01:23:04.847Z,15.13
2018-05-23T01:25:33.216Z,15.15
2018-05-23T01:28:01.527Z,15.12
2018-05-23T01:30:29.851Z,15.11
2018-05-23T01:32:58.191Z,15.09
2018-05-23T01:35:26.654Z,15.09
2018-05-23T01:37:54.970Z,15.07
2018-05-23T01:40:23.357Z,15.12
2018-05-23T01:42:51.709Z,15.19
2018-05-23T01:45:20.183Z,15.15
2018-05-23T01:47:48.490Z,15.08
2018-05-23T01:50:17.342Z,15.03
2018-05-23T01:52:45.712Z,15.02
2018-05-23T01:55:14.069Z,15.02
2018-05-23T01:57:42.394Z,15.03
2018-05-23T02:00:10.765Z,14.99
2018-05-23T02:02:39.111Z,14.95
2018-05-23T02:05:07.436Z,14.98
2018-05-23T02:07:35.979Z,15.02
2018-05-23T02:10:04.323Z,14.96
2018-05-23T02:12:32.623Z,14.96
2018-05-23T02:15:01.631Z,14.97
2018-05-23T02:17:30.101Z,14.97
2018-05-23T02:19:58.418Z,14.98
2018-05-23T02:22:26.881Z,15.03
2018-05-23T02:24:55.223Z,15.04
2018-05-23T02:27:23.531Z,15.08
2018-05-23T02:29:51.889Z,15.08
2018-05-23T02:32:20.246Z,15.07
2018-05-23T02:34:48.621Z,15.07
2018-05-23T02:37:17.016Z,15.07
2018-05-23T02:39:45.381Z,15.03
2018-05-23T02:42:13.705Z,15.01
2018-05-23T02:44:42.093Z,15.02
2018-05-23T02:47:10.487Z,14.97
2018-05-23T02:49:38.770Z,14.95
2018-05-23T02:52:07.157Z,14.98
2018-05-23T02:54:35.490Z,15.03
2018-05-23T02:57:03.827Z,15.10
2018-05-23T02:59:32.189Z,15.19
2018-05-23T03:02:00.506Z,15.17
2018-05-23T03:04:29.509Z,15.25
2018-05-23T03:06:58.285Z,15.32
2018-05-23T03:09:26.611Z,15.35
2018-05-23T03:11:54.963Z,15.41
2018-05-23T03:14:23.282Z,15.39
2018-05-23T03:16:51.611Z,15.42
2018-05-23T03:19:19.951Z,15.44
2018-05-23T03:21:48.281Z,15.40
2018-05-23T03:24:19.141Z,15.36
2018-05-23T03:26:47.516Z,15.22
2018-05-23T03:29:15.842Z,15.08
2018-05-23T03:31:44.217Z,15.02
2018-05-23T03:34:12.605Z,14.95
2018-05-23T03:36:41.897Z,14.95
2018-05-23T03:39:11.139Z,14.98
2018-05-23T03:41:39.526Z,15.03
2018-05-23T03:44:07.864Z,15.07
2018-05-23T03:46:36.235Z,15.10
2018-05-23T03:49:04.585Z,15.06
2018-05-23T03:51:34.147Z,15.03
2018-05-23T03:54:02.498Z,15.05
2018-05-23T03:56:30.830Z,15.01
2018-05-23T03:58:59.148Z,14.86
2018-05-23T04:01:40.168Z,14.60
2018-05-23T04:04:20.256Z,14.57
2018-05-23T04:07:01.249Z,14.63
2018-05-23T04:09:29.581Z,14.69
2018-05-23T04:11:57.932Z,14.80
2018-05-23T04:14:26.314Z,14.90
2018-05-23T04:16:54.627Z,14.97
2018-05-23T04:19:22.980Z,15.00
2018-05-23T04:21:51.345Z,15.10
2018-05-23T04:24:19.718Z,15.14
2018-05-23T04:26:48.079Z,15.12
2018-05-23T04:29:16.404Z,15.06
2018-05-23T04:31:45.744Z,15.06
2018-05-23T04:34:14.124Z,15.06
2018-05-23T04:36:42.720Z,15.11
2018-05-23T04:39:11.203Z,15.13
2018-05-23T04:41:39.499Z,14.97
2018-05-23T04:44:07.847Z,15.03
2018-05-23T04:46:36.187Z,15.17
2018-05-23T04:49:04.510Z,15.37
2018-05-23T04:51:32.927Z,15.70
2018-05-23T04:54:01.299Z,15.86
2018-05-23T04:56:29.863Z,15.86
2018-05-23T04:58:58.288Z,15.88
2018-05-23T05:01:26.635Z,16.00
2018-05-23T05:03:54.989Z,16.06
2018-05-23T05:06:23.387Z,16.15
2018-05-23T05:08:51.768Z,16.15
2018-05-23T05:11:20.186Z,16.28
2018-05-23T05:13:48.643Z,16.32
2018-05-23T05:16:16.941Z,16.34
2018-05-23T05:18:45.283Z,16.35
2018-05-23T05:21:13.730Z,16.51
2018-05-23T05:23:42.153Z,16.79
2018-05-23T05:26:10.402Z,16.82
2018-05-23T05:28:38.748Z,16.69
2018-05-23T05:31:07.077Z,16.76
2018-05-23T05:33:35.416Z,16.77
2018-05-23T05:36:03.754Z,16.74
2018-05-23T05:38:32.178Z,16.70
2018-05-23T05:41:00.954Z,16.80
2018-05-23T05:43:29.267Z,16.98
2018-05-23T05:45:57.617Z,17.02
2018-05-23T05:48:26.052Z,17.04
2018-05-23T05:50:54.398Z,17.18
2018-05-23T05:53:22.746Z,17.48
2018-05-23T05:55:51.176Z,17.97
2018-05-23T05:58:19.513Z,18.37
2018-05-23T06:00:47.885Z,19.67
2018-05-23T06:03:16.227Z,20.87
2018-05-23T06:05:44.593Z,21.86
2018-05-23T06:08:12.936Z,23.13
2018-05-23T06:10:41.343Z,24.03
2018-05-23T06:13:10.603Z,24.28
2018-05-23T06:15:38.945Z,25.28
2018-05-23T06:18:07.286Z,25.84
2018-05-23T06:20:35.903Z,26.10
2018-05-23T06:23:04.277Z,25.25
2018-05-23T06:25:32.685Z,25.46
2018-05-23T06:28:01.054Z,26.03
2018-05-23T06:30:29.509Z,26.61
2018-05-23T06:32:57.843Z,26.47
2018-05-23T06:35:26.232Z,27.03
2018-05-23T06:37:54.601Z,27.06
2018-05-23T06:40:23.830Z,26.29
2018-05-23T06:42:52.237Z,27.32
2018-05-23T06:45:20.582Z,27.19
2018-05-23T06:47:48.921Z,27.85
2018-05-23T06:50:17.273Z,28.00
2018-05-23T06:52:45.592Z,28.80
2018-05-23T06:55:14.556Z,28.59
2018-05-23T06:57:42.898Z,29.33
2018-05-23T07:00:11.251Z,29.76
2018-05-23T07:02:39.693Z,30.37
2018-05-23T07:05:08.610Z,30.12
2018-05-23T07:07:36.992Z,30.39
2018-05-23T07:10:05.324Z,29.34
2018-05-23T07:12:34.595Z,29.59
2018-05-23T07:15:02.986Z,29.53
2018-05-23T07:17:31.317Z,28.74
2018-05-23T07:19:59.660Z,28.80
2018-05-23T07:22:27.969Z,27.96
2018-05-23T07:24:56.346Z,28.97
2018-05-23T07:27:24.690Z,29.52
2018-05-23T07:29:53.011Z,29.44
2018-05-23T07:32:21.335Z,28.65
2018-05-23T07:34:49.714Z,28.25
2018-05-23T07:37:18.038Z,27.92
2018-05-23T07:39:47.672Z,27.60
2018-05-23T07:42:15.993Z,27.01
2018-05-23T07:44:44.324Z,27.54
2018-05-23T07:47:12.696Z,26.82
2018-05-23T07:49:41.022Z,26.65
2018-05-23T07:52:09.379Z,27.08
2018-05-23T07:54:37.782Z,27.05
2018-05-23T07:57:06.108Z,26.80
2018-05-23T07:59:34.454Z,27.08
2018-05-23T08:02:02.836Z,26.44
2018-05-23T08:04:31.167Z,26.81
2018-05-23T08:06:59.536Z,27.79
2018-05-23T08:09:27.920Z,29.03
2018-05-23T08:11:56.311Z,29.03
2018-05-23T08:14:24.632Z,29.26
2018-05-23T08:16:52.966Z,29.48
2018-05-23T08:19:21.280Z,29.66
2018-05-23T08:21:49.616Z,29.73
2018-05-23T08:24:18.521Z,29.94
2018-05-23T08:26:46.836Z,30.62
2018-05-23T08:29:15.276Z,30.59
2018-05-23T08:31:43.588Z,30.78
2018-05-23T08:34:11.986Z,29.96
2018-05-23T08:36:40.296Z,29.88
2018-05-23T08:39:08.714Z,30.12
2018-05-23T08:41:37.448Z,30.37
2018-05-23T08:44:05.805Z,29.87
2018-05-23T08:46:35.122Z,29.85
2018-05-23T08:49:03.536Z,30.54
2018-05-23T08:51:31.868Z,30.51
2018-05-23T08:54:00.186Z,30.77
2018-05-23T08:56:28.521Z,30.91
2018-05-23T08:58:56.880Z,30.56
2018-05-23T09:01:25.278Z,30.48
2018-05-23T09:03:53.621Z,29.78
2018-05-23T09:06:21.953Z,29.58
2018-05-23T09:08:50.361Z,29.92
2018-05-23T09:11:18.696Z,30.14
2018-05-23T09:13:47.035Z,30.36
2018-05-23T09:16:15.368Z,30.65
2018-05-23T09:18:43.677Z,30.66
2018-05-23T09:21:12.008Z,29.98
2018-05-23T09:23:40.334Z,29.49
2018-05-23T09:26:08.690Z,30.38
2018-05-23T09:28:37.172Z,30.96
2018-05-23T09:31:05.629Z,31.38
2018-05-23T09:33:33.963Z,31.23
2018-05-23T09:36:02.361Z,29.90
2018-05-23T09:38:30.751Z,29.76
2018-05-23T09:40:59.096Z,30.16
2018-05-23T09:43:27.417Z,30.37
2018-05-23T09:45:55.856Z,30.27
2018-05-23T09:48:24.439Z,30.44
2018-05-23T09:50:52.877Z,31.43
2018-05-23T09:53:21.321Z,30.32
2018-05-23T09:55:50.385Z,30.97
2018-05-23T09:58:18.869Z,30.94
2018-05-23T10:00:47.764Z,31.39
2018-05-23T10:03:16.101Z,31.53
2018-05-23T10:05:44.510Z,31.86
2018-05-23T10:08:12.912Z,31.39
2018-05-23T10:10:41.449Z,31.08
2018-05-23T10:13:09.816Z,30.65
2018-05-23T10:15:38.142Z,29.89
2018-05-23T10:18:06.487Z,29.18
2018-05-23T10:20:34.884Z,28.20
2018-05-23T10:23:03.211Z,27.84
2018-05-23T10:25:31.536Z,27.38
2018-05-23T10:27:59.924Z,27.49
2018-05-23T10:30:28.238Z,27.51
2018-05-23T10:32:56.638Z,27.10
2018-05-23T10:35:24.963Z,26.64
2018-05-23T10:37:55.644Z,26.50
2018-05-23T10:40:23.967Z,26.26
2018-05-23T10:42:52.277Z,26.23
2018-05-23T10:45:20.603Z,25.93
2018-05-23T10:47:48.934Z,25.95
2018-05-23T10:50:17.331Z,25.71
2018-05-23T10:52:45.656Z,25.47
2018-05-23T10:55:14.059Z,25.27
2018-05-23T10:57:42.375Z,25.20
2018-05-23T11:00:10.776Z,24.93
2018-05-23T11:02:39.085Z,24.86
2018-05-23T11:05:07.426Z,24.74
2018-05-23T11:07:35.757Z,24.48
2018-05-23T11:10:04.089Z,24.15
2018-05-23T11:12:32.450Z,23.99
2018-05-23T11:15:00.817Z,23.93
2018-05-23T11:17:29.124Z,24.04
2018-05-23T11:19:57.538Z,23.77
2018-05-23T11:22:25.862Z,23.73
2018-05-23T11:24:54.229Z,23.55
2018-05-23T11:27:22.623Z,23.40
2018-05-23T11:29:51.046Z,23.22
2018-05-23T11:32:19.425Z,23.23
2018-05-23T11:34:47.793Z,23.12
2018-05-23T11:37:16.136Z,23.10
2018-05-23T11:39:44.451Z,23.21
2018-05-23T11:42:13.078Z,23.17
2018-05-23T11:44:41.454Z,23.24
2018-05-23T11:47:09.789Z,23.29
2018-05-23T11:49:38.149Z,23.34
2018-05-23T11:52:06.605Z,23.32
2018-05-23T11:54:34.918Z,23.21
2018-05-23T11:57:03.566Z,23.18
2018-05-23T11:59:31.919Z,23.09
2018-05-23T12:02:00.261Z,23.19
2018-05-23T12:04:28.579Z,23.11
2018-05-23T12:06:56.990Z,23.16
2018-05-23T12:09:25.390Z,23.42
2018-05-23T12:11:53.717Z,23.62
2018-05-23T12:14:22.049Z,23.76
2018-05-23T12:16:50.718Z,23.90
2018-05-23T12:19:19.052Z,23.99
2018-05-23T12:21:47.441Z,24.08
2018-05-23T12:24:15.774Z,24.21
2018-05-23T12:26:44.083Z,24.18
2018-05-23T12:29:12.412Z,24.15
2018-05-23T12:31:40.843Z,24.07
2018-05-23T12:34:09.203Z,23.96
2018-05-23T12:36:37.539Z,24.08
2018-05-23T12:39:05.860Z,24.04
2018-05-23T12:41:34.272Z,24.24
2018-05-23T12:44:02.612Z,24.35
2018-05-23T12:46:30.964Z,24.42
2018-05-23T12:48:59.281Z,24.52
2018-05-23T12:51:27.647Z,24.71
2018-05-23T12:53:57.076Z,24.74
2018-05-23T12:56:25.397Z,24.76
2018-05-23T12:58:53.725Z,24.88
2018-05-23T13:01:22.131Z,25.01
2018-05-23T13:03:50.455Z,25.38
2018-05-23T13:06:18.793Z,25.66
2018-05-23T13:08:47.205Z,26.67
2018-05-23T13:11:15.558Z,27.32
2018-05-23T13:13:43.911Z,27.70
2018-05-23T13:16:12.943Z,27.67
2018-05-23T13:18:41.259Z,27.06
2018-05-23T13:21:09.620Z,27.15
2018-05-23T13:23:37.948Z,26.81
2018-05-23T13:26:06.373Z,26.55
2018-05-23T13:28:34.769Z,26.25
2018-05-23T13:31:03.699Z,26.25
2018-05-23T13:33:32.079Z,25.93
2018-05-23T13:36:00.691Z,25.99
2018-05-23T13:38:29.050Z,26.20
2018-05-23T13:40:57.376Z,26.30
2018-05-23T13:43:25.704Z,26.54
2018-05-23T13:45:54.037Z,26.79
2018-05-23T13:48:22.367Z,26.48
2018-05-23T13:50:50.860Z,26.47
2018-05-23T13:53:19.212Z,26.65
2018-05-23T13:55:47.598Z,26.61
2018-05-23T13:58:15.937Z,26.65
2018-05-23T14:00:44.290Z,26.87
2018-05-23T14:03:12.641Z,26.99
2018-05-23T14:05:41.078Z,26.98
2018-05-23T14:08:09.478Z,26.85
2018-05-23T14:10:37.817Z,26.67
2018-05-23T14:13:06.392Z,26.49
2018-05-23T14:15:34.759Z,26.45
2018-05-23T14:18:03.964Z,26.48
2018-05-23T14:20:32.291Z,26.69
2018-05-23T14:23:00.620Z,26.61
2018-05-23T14:25:28.962Z,26.54
2018-05-23T14:27:57.285Z,26.39
2018-05-23T14:30:25.632Z,26.34
2018-05-23T14:32:54.003Z,26.27
2018-05-23T14:35:22.410Z,26.11
2018-05-23T14:37:51.893Z,25.85
2018-05-23T14:40:20.215Z,25.92
2018-05-23T14:42:48.675Z,25.98
2018-05-23T14:45:16.969Z,25.99
2018-05-23T14:47:45.296Z,26.03
2018-05-23T14:50:13.629Z,26.12
2018-05-23T14:52:41.946Z,26.21
2018-05-23T14:55:10.377Z,26.23
2018-05-23T14:57:38.727Z,26.49
2018-05-23T15:00:07.089Z,26.57
2018-05-23T15:02:35.458Z,26.57
2018-05-23T15:05:03.792Z,26.70
2018-05-23T15:07:32.142Z,26.63
2018-05-23T15:10:00.493Z,26.63
2018-05-23T15:12:28.917Z,26.57
2018-05-23T15:14:57.316Z,26.55
2018-05-23T15:17:25.653Z,26.31
2018-05-23T15:19:59.213Z,26.11
2018-05-23T15:22:27.512Z,26.18
2018-05-23T15:24:55.902Z,26.23
2018-05-23T15:27:24.214Z,26.13
2018-05-23T15:29:52.541Z,25.99
2018-05-23T15:32:20.855Z,25.94
2018-05-23T15:34:49.179Z,25.81
2018-05-23T15:37:17.510Z,25.81
2018-05-23T15:39:45.837Z,25.76
2018-05-23T15:42:14.173Z,25.76
2018-05-23T15:44:42.512Z,25.67
2018-05-23T15:47:10.913Z,25.79
2018-05-23T15:49:39.228Z,25.78
2018-05-23T15:52:07.564Z,25.82
2018-05-23T15:54:35.975Z,26.07
2018-05-23T15:57:04.319Z,25.96
2018-05-23T15:59:32.667Z,26.03
2018-05-23T16:02:00.975Z,25.95
2018-05-23T16:04:29.351Z,25.88
2018-05-23T16:06:57.707Z,25.98
2018-05-23T16:09:26.104Z,25.77
2018-05-23T16:11:54.410Z,25.74
2018-05-23T16:14:22.829Z,25.78
2018-05-23T16:16:51.164Z,25.48
2018-05-23T16:19:19.495Z,25.31
2018-05-23T16:21:47.825Z,25.39
2018-05-23T16:24:16.133Z,25.43
2018-05-23T16:26:44.460Z,25.42
2018-05-23T16:29:12.877Z,25.35
2018-05-23T16:31:41.304Z,25.24
2018-05-23T16:34:09.624Z,25.04
2018-05-23T16:36:38.058Z,24.96
2018-05-23T16:39:06.542Z,24.93
2018-05-23T16:41:34.882Z,24.97
2018-05-23T16:44:03.247Z,24.94
2018-05-23T16:46:31.571Z,24.83
2018-05-23T16:48:59.892Z,24.73
2018-05-23T16:51:28.299Z,24.71
2018-05-23T16:53:56.655Z,24.76
2018-05-23T16:56:24.980Z,24.73
2018-05-23T16:58:53.314Z,24.63
2018-05-23T17:01:21.656Z,24.50
2018-05-23T17:03:50.078Z,24.32
2018-05-23T17:06:18.418Z,24.35
2018-05-23T17:08:46.811Z,24.21
2018-05-23T17:11:15.158Z,24.08
2018-05-23T17:13:43.487Z,24.09
2018-05-23T17:16:11.851Z,24.10
2018-05-23T17:18:40.186Z,24.06
2018-05-23T17:21:08.556Z,24.06
2018-05-23T17:23:36.905Z,24.00
2018-05-23T17:26:05.285Z,23.91
2018-05-23T17:28:33.627Z,23.83
2018-05-23T17:31:01.949Z,23.78
2018-05-23T17:33:30.376Z,23.75
2018-05-23T17:35:58.721Z,23.62
2018-05-23T17:38:27.048Z,23.58
2018-05-23T17:40:55.361Z,23.56
2018-05-23T17:43:23.682Z,23.55
2018-05-23T17:45:52.093Z,23.55
2018-05-23T17:48:20.399Z,23.46
2018-05-23T17:50:48.731Z,23.39
2018-05-23T17:56:08.835Z,23.29
2018-05-23T17:58:37.165Z,23.24
2018-05-23T18:01:05.711Z,23.26
2018-05-23T18:03:34.032Z,23.14
2018-05-23T18:06:02.436Z,23.15
2018-05-23T18:08:30.814Z,23.05
2018-05-23T18:10:59.138Z,23.02
2018-05-23T18:13:27.525Z,23.03
2018-05-23T18:15:55.856Z,22.89
2018-05-23T18:18:24.323Z,22.89
2018-05-23T18:20:52.767Z,22.86
2018-05-23T18:23:21.204Z,22.80
2018-05-23T18:25:49.507Z,22.71
2018-05-23T18:28:17.934Z,22.76
2018-05-23T18:30:46.308Z,22.72
2018-05-23T18:33:14.710Z,22.68
2018-05-23T18:35:43.336Z,22.66
2018-05-23T18:38:11.687Z,22.68
2018-05-23T18:40:40.015Z,22.63
2018-05-23T18:43:08.402Z,22.62
2018-05-23T18:45:36.785Z,22.56
2018-05-23T18:48:05.103Z,22.49
2018-05-23T18:50:33.489Z,22.49
2018-05-23T18:53:01.842Z,22.46
2018-05-23T18:55:30.265Z,22.45
2018-05-23T18:57:58.613Z,22.45
2018-05-23T19:00:27.698Z,22.35
2018-05-23T19:02:56.037Z,22.35
2018-05-23T19:05:24.419Z,22.31
2018-05-23T19:07:52.708Z,22.33
2018-05-23T19:10:21.044Z,22.27
2018-05-23T19:12:49.635Z,22.27
2018-05-23T19:15:17.972Z,22.27
2018-05-23T19:17:46.315Z,22.22
2018-05-23T19:20:14.765Z,22.17
2018-05-23T19:22:43.014Z,22.13
2018-05-23T19:25:11.383Z,22.02
2018-05-23T19:27:39.818Z,21.99
2018-05-23T19:30:08.162Z,22.01
2018-05-23T19:32:36.549Z,21.99
2018-05-23T19:35:05.014Z,21.98
2018-05-23T19:37:33.339Z,21.98
2018-05-23T19:40:01.781Z,21.99
2018-05-23T19:45:05.071Z,21.90
2018-05-23T19:47:33.424Z,21.91
2018-05-23T19:50:02.662Z,21.87
2018-05-23T19:52:31.621Z,21.89
2018-05-23T19:54:59.961Z,21.89
2018-05-23T19:57:28.284Z,21.86
2018-05-23T19:59:56.638Z,21.84
2018-05-23T20:02:25.091Z,21.79
2018-05-23T20:04:53.449Z,21.78
2018-05-23T20:07:21.789Z,21.74
2018-05-23T20:09:50.128Z,21.71
2018-05-23T20:12:18.521Z,21.69
2018-05-23T20:14:46.909Z,21.65
2018-05-23T20:17:16.339Z,21.65
2018-05-23T20:19:44.687Z,21.52
2018-05-23T20:22:13.015Z,21.52
2018-05-23T20:24:41.418Z,21.39
2018-05-23T20:27:11.166Z,21.40
2018-05-23T20:29:39.498Z,21.46
2018-05-23T20:32:07.911Z,21.38
2018-05-23T20:34:36.534Z,21.34
2018-05-23T20:37:04.906Z,21.35
2018-05-23T20:39:33.300Z,21.37
2018-05-23T20:42:02.023Z,21.40
2018-05-23T20:44:30.366Z,21.36
2018-05-23T20:46:58.703Z,21.37
2018-05-23T20:49:27.074Z,21.37
2018-05-23T20:51:55.407Z,21.33
2018-05-23T20:54:23.715Z,21.38
2018-05-23T20:56:52.069Z,21.30
2018-05-23T20:59:20.460Z,21.31
2018-05-23T21:01:48.781Z,21.26
2018-05-23T21:04:17.112Z,21.16
2018-05-23T21:06:45.431Z,21.15
2018-05-23T21:09:13.821Z,21.13
2018-05-23T21:11:42.288Z,21.08
2018-05-23T21:14:10.668Z,21.08
2018-05-23T21:16:38.989Z,21.08
2018-05-23T21:19:07.336Z,21.04
2018-05-23T21:21:35.694Z,21.03
2018-05-23T21:24:04.071Z,21.03
2018-05-23T21:26:32.405Z,21.03
2018-05-23T21:29:00.747Z,21.06
2018-05-23T21:31:29.061Z,21.08
2018-05-23T21:33:57.434Z,21.12
2018-05-23T21:36:25.763Z,21.10
2018-05-23T21:38:54.097Z,21.15
2018-05-23T21:41:22.491Z,21.14
2018-05-23T21:43:50.815Z,21.11
2018-05-23T21:46:19.192Z,21.05
2018-05-23T21:48:47.569Z,21.10
2018-05-23T21:51:15.887Z,21.12
2018-05-23T21:53:44.299Z,21.07
2018-05-23T21:56:12.636Z,21.07
2018-05-23T21:58:41.053Z,21.01
2018-05-23T22:01:13.134Z,20.98
2018-05-23T22:03:41.463Z,20.97
2018-05-23T22:06:09.809Z,20.95
2018-05-23T22:08:38.119Z,20.89
2018-05-23T22:11:06.487Z,20.91
2018-05-23T22:13:34.935Z,20.84
2018-05-23T22:16:03.281Z,20.81
2018-05-23T22:18:31.884Z,20.76
2018-05-23T22:21:01.276Z,20.69
2018-05-23T22:23:29.691Z,20.67
2018-05-23T22:25:58.075Z,20.65
2018-05-23T22:28:26.536Z,20.66
2018-05-23T22:30:54.849Z,20.66
2018-05-23T22:33:23.173Z,20.61
2018-05-23T22:35:51.595Z,20.52
2018-05-23T22:38:19.840Z,20.52
2018-05-23T22:40:48.193Z,20.49
2018-05-23T22:43:16.541Z,20.45
2018-05-23T22:45:44.971Z,20.36
2018-05-23T22:48:13.294Z,20.39
2018-05-23T22:50:41.688Z,20.43
2018-05-23T22:53:10.013Z,20.37
2018-05-23T22:55:38.355Z,20.39
2018-05-23T22:58:06.716Z,20.39
2018-05-23T23:00:35.057Z,20.36
2018-05-23T23:03:03.403Z,20.34
2018-05-23T23:05:31.745Z,20.34
2018-05-23T23:08:00.123Z,20.31
2018-05-23T23:10:28.443Z,20.34
2018-05-23T23:12:56.772Z,20.34
2018-05-23T23:15:25.093Z,20.29
2018-05-23T23:17:53.489Z,20.24
2018-05-23T23:20:21.941Z,20.22
2018-05-23T23:22:50.267Z,20.25
2018-05-23T23:25:18.579Z,20.28
2018-05-23T23:27:46.989Z,20.28
2018-05-23T23:30:15.378Z,20.22
2018-05-23T23:32:43.803Z,20.24
2018-05-23T23:35:12.151Z,20.27
2018-05-23T23:37:40.475Z,20.24
2018-05-23T23:40:08.830Z,20.19
2018-05-23T23:42:37.157Z,20.22
2018-05-23T23:45:05.512Z,20.17
2018-05-23T23:47:33.900Z,20.17
2018-05-23T23:50:02.224Z,20.15
2018-05-23T23:52:30.596Z,20.16
2018-05-23T23:54:58.981Z,20.13
2018-05-23T23:57:27.304Z,20.07
2018-05-23T23:59:55.698Z,20.05
